createdAt,value
2022-10-25T00:00:51.659Z,80.50
2022-10-25T00:03:19.998Z,80.36
2022-10-25T00:05:48.237Z,80.55
2022-10-25T00:08:16.615Z,80.51
2022-10-25T00:10:44.873Z,80.14
2022-10-25T00:13:14.468Z,80.44
2022-10-25T00:15:42.743Z,80.25
2022-10-25T00:18:11.060Z,80.38
2022-10-25T00:20:39.523Z,80.51
2022-10-25T00:23:07.860Z,80.39
2022-10-25T00:25:36.075Z,80.31
2022-10-25T00:28:04.326Z,80.50
2022-10-25T00:30:34.006Z,79.99
2022-10-25T00:33:02.274Z,80.16
2022-10-25T00:35:30.629Z,80.11
2022-10-25T00:38:00.917Z,80.03
2022-10-25T00:40:29.159Z,79.57
2022-10-25T00:42:57.367Z,79.68
2022-10-25T00:45:28.264Z,79.29
2022-10-25T00:48:02.920Z,79.41
2022-10-25T00:50:36.995Z,79.43
2022-10-25T00:53:11.307Z,79.13
2022-10-25T00:55:45.672Z,79.41
2022-10-25T00:58:17.567Z,79.49
2022-10-25T01:00:49.290Z,79.20
2022-10-25T01:03:22.299Z,79.09
2022-10-25T01:05:52.036Z,79.26
2022-10-25T01:08:22.403Z,79.06
2022-10-25T01:10:51.544Z,79.38
2022-10-25T01:13:19.968Z,79.14
2022-10-25T01:15:59.722Z,78.78
2022-10-25T01:18:38.790Z,78.42
2022-10-25T01:21:32.389Z,78.47
2022-10-25T01:24:29.151Z,78.14
2022-10-25T01:27:13.498Z,78.15
2022-10-25T01:30:07.201Z,77.62
2022-10-25T01:32:58.572Z,77.89
2022-10-25T01:35:30.910Z,78.25
2022-10-25T01:38:22.166Z,77.89
2022-10-25T01:40:57.162Z,77.95
2022-10-25T01:43:35.257Z,78.06
2022-10-25T01:46:13.830Z,77.75
2022-10-25T01:48:49.626Z,78.21
2022-10-25T01:51:19.558Z,78.06
2022-10-25T01:53:49.642Z,77.84
2022-10-25T01:56:25.414Z,77.77
2022-10-25T01:59:10.647Z,77.64
2022-10-25T02:01:52.199Z,77.31
2022-10-25T02:04:30.312Z,77.52
2022-10-25T02:07:07.497Z,77.34
2022-10-25T02:09:43.787Z,77.45
2022-10-25T02:12:18.672Z,77.26
2022-10-25T02:14:54.420Z,77.07
2022-10-25T02:17:26.646Z,77.00
2022-10-25T02:20:00.538Z,77.27
2022-10-25T02:22:31.556Z,77.56
2022-10-25T02:25:01.074Z,77.35
2022-10-25T02:27:31.381Z,77.21
2022-10-25T02:30:01.186Z,77.23
2022-10-25T02:32:29.544Z,77.34
2022-10-25T02:34:59.302Z,76.96
2022-10-25T02:37:27.654Z,77.29
2022-10-25T02:39:56.360Z,77.31
2022-10-25T02:42:24.745Z,77.46
2022-10-25T02:44:52.925Z,77.58
2022-10-25T02:47:21.277Z,77.50
2022-10-25T02:49:49.580Z,77.05
2022-10-25T02:52:19.331Z,77.17
2022-10-25T02:54:47.618Z,77.05
2022-10-25T02:57:15.885Z,76.84
2022-10-25T02:59:44.183Z,76.75
2022-10-25T03:02:13.401Z,76.74
2022-10-25T03:04:41.696Z,76.67
2022-10-25T03:07:09.973Z,76.14
2022-10-25T03:09:39.605Z,75.96
2022-10-25T03:12:08.075Z,76.26
2022-10-25T03:14:36.362Z,76.48
2022-10-25T03:17:06.498Z,76.04
2022-10-25T03:19:34.737Z,75.89
2022-10-25T03:22:03.775Z,75.95
2022-10-25T03:24:31.975Z,75.90
2022-10-25T03:27:02.780Z,75.68
2022-10-25T03:29:31.186Z,75.25
2022-10-25T03:31:59.705Z,75.72
2022-10-25T03:34:28.237Z,75.67
2022-10-25T03:36:57.810Z,75.48
2022-10-25T03:39:26.387Z,75.75
2022-10-25T03:41:54.598Z,75.83
2022-10-25T03:44:24.351Z,75.96
2022-10-25T03:46:52.547Z,76.08
2022-10-25T03:49:20.828Z,76.27
2022-10-25T03:51:52.332Z,76.12
2022-10-25T03:54:25.640Z,76.43
2022-10-25T03:56:57.202Z,76.06
2022-10-25T03:59:27.191Z,76.34
2022-10-25T04:01:55.746Z,76.17
2022-10-25T04:04:24.049Z,76.21
2022-10-25T04:06:52.442Z,76.04
2022-10-25T04:09:20.707Z,75.92
2022-10-25T04:11:48.998Z,75.88
2022-10-25T04:14:17.254Z,75.47
2022-10-25T04:16:46.897Z,75.58
2022-10-25T04:19:15.135Z,75.18
2022-10-25T04:21:43.584Z,75.63
2022-10-25T04:24:12.743Z,75.63
2022-10-25T04:26:41.100Z,75.85
2022-10-25T04:29:09.593Z,75.88
2022-10-25T04:31:37.908Z,76.00
2022-10-25T04:34:07.615Z,76.02
2022-10-25T04:36:35.867Z,75.84
2022-10-25T04:39:04.107Z,75.71
2022-10-25T04:41:32.398Z,75.71
2022-10-25T04:44:00.626Z,75.50
2022-10-25T04:46:28.935Z,75.57
2022-10-25T04:48:57.423Z,75.85
2022-10-25T04:51:27.134Z,76.02
2022-10-25T04:53:55.426Z,75.97
2022-10-25T04:56:23.902Z,76.05
2022-10-25T04:58:52.123Z,75.82
2022-10-25T05:01:20.906Z,75.47
2022-10-25T05:03:49.962Z,75.59
2022-10-25T05:06:20.653Z,75.38
2022-10-25T05:08:51.861Z,75.81
2022-10-25T05:11:22.567Z,75.89
2022-10-25T05:13:51.166Z,76.28
2022-10-25T05:16:23.248Z,76.40
2022-10-25T05:18:54.518Z,76.66
2022-10-25T05:24:01.828Z,76.44
2022-10-25T05:26:31.599Z,75.80
2022-10-25T05:29:00.200Z,75.74
2022-10-25T05:31:29.693Z,75.18
2022-10-25T05:33:59.886Z,75.57
2022-10-25T05:36:29.676Z,75.89
2022-10-25T05:38:59.405Z,76.30
2022-10-25T05:41:30.675Z,75.99
2022-10-25T05:44:01.654Z,75.97
2022-10-25T05:46:29.895Z,76.02
2022-10-25T05:49:00.490Z,75.76
2022-10-25T05:51:37.611Z,75.71
2022-10-25T05:54:09.236Z,75.47
2022-10-25T05:56:38.094Z,75.81
2022-10-25T05:59:09.073Z,76.27
2022-10-25T06:01:39.521Z,75.75
2022-10-25T06:04:08.499Z,76.29
2022-10-25T06:06:37.275Z,76.44
2022-10-25T06:09:07.524Z,76.46
2022-10-25T06:11:35.919Z,76.88
2022-10-25T06:14:04.310Z,76.80
2022-10-25T06:16:32.966Z,76.97
2022-10-25T06:19:01.262Z,76.75
2022-10-25T06:21:30.562Z,76.81
2022-10-25T06:24:00.525Z,76.28
2022-10-25T06:26:31.676Z,76.62
2022-10-25T06:29:01.785Z,76.93
2022-10-25T06:31:31.104Z,77.30
2022-10-25T06:34:00.283Z,77.86
2022-10-25T06:36:31.207Z,77.82
2022-10-25T06:39:05.786Z,77.96
2022-10-25T06:41:38.014Z,77.92
2022-10-25T06:44:07.846Z,77.43
2022-10-25T06:47:11.804Z,77.27
2022-10-25T06:49:27.809Z,77.20
2022-10-25T06:51:56.390Z,77.47
2022-10-25T06:54:26.804Z,77.24
2022-10-25T06:56:56.563Z,77.81
2022-10-25T06:59:25.042Z,78.04
2022-10-25T07:01:55.352Z,77.89
2022-10-25T07:04:24.774Z,78.06
2022-10-25T07:06:55.307Z,78.65
2022-10-25T07:09:23.866Z,78.85
2022-10-25T07:11:52.195Z,78.83
2022-10-25T07:14:22.692Z,79.14
2022-10-25T07:16:50.950Z,79.34
2022-10-25T07:19:19.249Z,79.32
2022-10-25T07:21:47.498Z,79.49
2022-10-25T07:24:15.878Z,79.50
2022-10-25T07:26:44.551Z,80.30
2022-10-25T07:29:12.730Z,80.44
2022-10-25T07:31:44.452Z,80.13
2022-10-25T07:34:15.017Z,78.79
2022-10-25T07:36:43.552Z,78.32
2022-10-25T07:39:11.864Z,77.72
2022-10-25T07:41:40.423Z,77.31
2022-10-25T07:44:13.031Z,77.26
2022-10-25T07:46:46.005Z,77.26
2022-10-25T07:49:14.959Z,77.55
2022-10-25T07:51:43.308Z,77.67
2022-10-25T07:54:11.538Z,77.17
2022-10-25T07:56:39.744Z,76.82
2022-10-25T07:59:08.020Z,76.53
2022-10-25T08:01:36.776Z,75.87
2022-10-25T08:04:06.634Z,75.45
2022-10-25T08:06:36.204Z,74.91
2022-10-25T08:09:14.575Z,74.61
2022-10-25T08:11:43.432Z,73.99
2022-10-25T08:14:11.746Z,73.37
2022-10-25T08:16:40.073Z,73.52
2022-10-25T08:19:09.680Z,73.38
2022-10-25T08:21:37.942Z,71.93
2022-10-25T08:24:07.124Z,71.51
2022-10-25T08:26:36.991Z,71.82
2022-10-25T08:29:05.789Z,70.94
2022-10-25T08:31:34.129Z,70.56
2022-10-25T08:34:02.422Z,69.85
2022-10-25T08:36:32.123Z,70.29
2022-10-25T08:39:00.737Z,70.58
2022-10-25T08:41:42.325Z,70.62
2022-10-25T08:44:17.575Z,69.83
2022-10-25T08:46:57.626Z,69.52
2022-10-25T08:49:31.022Z,69.29
2022-10-25T08:52:02.997Z,67.87
2022-10-25T08:54:35.256Z,67.49
2022-10-25T08:57:16.212Z,67.69
2022-10-25T08:59:53.695Z,68.15
2022-10-25T09:02:28.249Z,68.16
2022-10-25T09:04:56.752Z,67.68
2022-10-25T09:07:56.541Z,66.84
2022-10-25T09:10:35.311Z,67.03
2022-10-25T09:13:12.326Z,66.12
2022-10-25T09:16:01.424Z,66.30
2022-10-25T09:18:40.973Z,65.66
2022-10-25T09:21:22.175Z,64.72
2022-10-25T09:24:07.192Z,63.63
2022-10-25T09:26:42.309Z,64.46
2022-10-25T09:29:17.805Z,63.60
2022-10-25T09:31:51.040Z,63.02
2022-10-25T09:34:21.618Z,63.65
2022-10-25T09:36:54.068Z,63.87
2022-10-25T09:39:26.583Z,63.46
2022-10-25T09:41:57.330Z,62.73
2022-10-25T09:44:36.334Z,62.88
2022-10-25T09:47:22.277Z,62.64
2022-10-25T09:49:57.613Z,61.31
2022-10-25T09:52:33.411Z,61.15
2022-10-25T09:55:17.111Z,61.21
2022-10-25T09:57:46.557Z,61.88
2022-10-25T10:00:16.215Z,61.97
2022-10-25T10:02:44.652Z,60.56
2022-10-25T10:05:17.198Z,60.43
2022-10-25T10:07:47.063Z,60.61
2022-10-25T10:10:20.318Z,61.34
2022-10-25T10:12:52.994Z,61.39
2022-10-25T10:15:27.351Z,62.11
2022-10-25T10:18:20.958Z,61.67
2022-10-25T10:21:08.093Z,62.07
2022-10-25T10:23:46.594Z,60.75
2022-10-25T10:26:23.118Z,61.10
2022-10-25T10:28:53.515Z,60.87
2022-10-25T10:31:22.114Z,60.46
2022-10-25T10:33:52.570Z,59.64
2022-10-25T10:36:23.705Z,59.55
2022-10-25T10:38:52.210Z,59.95
2022-10-25T10:41:28.497Z,60.30
2022-10-25T10:44:13.147Z,60.35
2022-10-25T10:46:51.710Z,60.15
2022-10-25T10:49:21.992Z,59.71
2022-10-25T10:51:50.437Z,59.63
2022-10-25T10:54:28.278Z,59.32
2022-10-25T10:57:00.851Z,60.36
2022-10-25T10:59:38.379Z,59.33
2022-10-25T11:02:27.260Z,59.11
2022-10-25T11:04:58.048Z,59.46
2022-10-25T11:07:31.130Z,60.30
2022-10-25T11:10:21.280Z,59.39
2022-10-25T11:13:23.014Z,58.02
2022-10-25T11:16:09.980Z,58.54
2022-10-25T11:18:51.314Z,58.47
2022-10-25T11:21:44.770Z,58.57
2022-10-25T11:24:26.026Z,58.05
2022-10-25T11:29:45.454Z,58.07
2022-10-25T11:32:47.569Z,58.43
2022-10-25T11:35:33.282Z,58.59
2022-10-25T11:38:06.969Z,58.70
2022-10-25T11:40:42.289Z,58.70
2022-10-25T11:43:27.983Z,58.73
2022-10-25T11:46:05.135Z,58.13
2022-10-25T11:49:02.635Z,58.72
2022-10-25T11:51:39.213Z,59.92
2022-10-25T11:54:26.730Z,60.07
2022-10-25T11:57:08.442Z,58.90
2022-10-25T11:59:53.841Z,59.25
2022-10-25T12:02:41.075Z,60.03
2022-10-25T12:05:26.562Z,60.84
2022-10-25T12:08:08.728Z,60.56
2022-10-25T12:13:15.904Z,61.65
2022-10-25T12:15:47.345Z,62.52
2022-10-25T12:18:25.358Z,61.76
2022-10-25T12:20:55.801Z,62.34
2022-10-25T12:23:27.531Z,61.82
2022-10-25T12:26:00.038Z,60.84
2022-10-25T12:28:35.408Z,60.67
2022-10-25T12:31:09.756Z,60.40
2022-10-25T12:33:43.901Z,60.76
2022-10-25T12:36:21.125Z,61.69
2022-10-25T12:38:49.433Z,60.75
2022-10-25T12:41:22.786Z,60.90
2022-10-25T12:44:10.063Z,59.89
2022-10-25T12:46:52.890Z,60.51
2022-10-25T12:49:59.255Z,60.84
2022-10-25T12:52:34.881Z,60.04
2022-10-25T12:55:34.962Z,60.06
2022-10-25T12:58:21.070Z,60.01
2022-10-25T13:01:05.852Z,60.54
2022-10-25T13:04:01.897Z,60.01
2022-10-25T13:06:36.782Z,60.76
2022-10-25T13:09:11.069Z,60.36
2022-10-25T13:11:43.308Z,60.59
2022-10-25T13:14:23.354Z,60.35
2022-10-25T13:16:51.653Z,60.60
2022-10-25T13:19:53.415Z,59.82
2022-10-25T13:22:39.408Z,60.55
2022-10-25T13:25:19.520Z,60.12
2022-10-25T13:28:23.350Z,60.29
2022-10-25T13:30:51.569Z,61.41
2022-10-25T13:33:33.605Z,61.30
2022-10-25T13:36:04.988Z,61.42
2022-10-25T13:38:39.348Z,62.11
2022-10-25T13:41:20.751Z,62.36
2022-10-25T13:44:01.218Z,62.29
2022-10-25T13:46:37.619Z,61.87
2022-10-25T13:49:29.738Z,62.11
2022-10-25T13:52:00.132Z,62.30
2022-10-25T13:54:39.083Z,62.09
2022-10-25T13:57:49.656Z,62.77
2022-10-25T14:00:37.503Z,63.18
2022-10-25T14:03:35.026Z,63.69
2022-10-25T14:06:28.950Z,63.79
2022-10-25T14:09:08.952Z,64.46
2022-10-25T14:11:42.432Z,64.57
2022-10-25T14:14:37.626Z,64.28
2022-10-25T14:17:15.962Z,64.91
2022-10-25T14:19:49.117Z,64.71
2022-10-25T14:22:19.277Z,64.93
2022-10-25T14:24:52.631Z,65.26
2022-10-25T14:27:30.143Z,64.87
2022-10-25T14:30:26.902Z,65.45
2022-10-25T14:32:57.593Z,65.61
2022-10-25T14:35:35.388Z,65.97
2022-10-25T14:38:14.967Z,65.76
2022-10-25T14:40:43.295Z,66.15
2022-10-25T14:43:23.266Z,65.72
2022-10-25T14:46:05.442Z,65.96
2022-10-25T14:48:34.407Z,66.10
2022-10-25T14:51:07.346Z,65.33
2022-10-25T14:53:37.945Z,65.33
2022-10-25T14:56:08.607Z,65.51
2022-10-25T14:58:43.326Z,65.16
2022-10-25T15:01:13.549Z,65.03
2022-10-25T15:03:45.563Z,65.83
2022-10-25T15:06:15.610Z,65.77
2022-10-25T15:08:51.516Z,65.80
2022-10-25T15:11:21.601Z,66.01
2022-10-25T15:13:51.658Z,66.18
2022-10-25T15:16:30.777Z,66.45
2022-10-25T15:19:20.565Z,67.20
2022-10-25T15:21:50.826Z,67.31
2022-10-25T15:24:21.633Z,67.62
2022-10-25T15:26:57.693Z,67.37
2022-10-25T15:29:45.563Z,67.84
2022-10-25T15:32:18.404Z,68.01
2022-10-25T15:34:49.765Z,67.95
2022-10-25T15:37:20.192Z,68.48
2022-10-25T15:39:49.645Z,69.01
2022-10-25T15:42:18.573Z,69.35
2022-10-25T15:44:46.862Z,69.18
2022-10-25T15:47:34.945Z,69.31
2022-10-25T15:50:05.763Z,69.53
2022-10-25T15:52:34.110Z,69.30
2022-10-25T15:55:02.394Z,69.40
2022-10-25T15:57:30.604Z,69.68
2022-10-25T15:59:59.826Z,69.60
2022-10-25T16:02:28.694Z,69.80
2022-10-25T16:04:58.571Z,69.88
2022-10-25T16:07:26.784Z,70.23
2022-10-25T16:09:55.023Z,70.15
2022-10-25T16:12:33.780Z,70.20
2022-10-25T16:15:02.087Z,70.84
2022-10-25T16:17:30.354Z,70.81
2022-10-25T16:20:00.038Z,70.54
2022-10-25T16:22:28.362Z,71.17
2022-10-25T16:24:56.622Z,71.06
2022-10-25T16:27:24.912Z,71.19
2022-10-25T16:29:53.286Z,71.65
2022-10-25T16:32:22.519Z,71.90
2022-10-25T16:34:50.787Z,72.01
2022-10-25T16:37:20.575Z,72.08
2022-10-25T16:39:48.945Z,71.84
2022-10-25T16:42:31.065Z,71.92
2022-10-25T16:45:00.427Z,72.38
2022-10-25T16:47:29.478Z,72.57
2022-10-25T16:49:57.783Z,72.72
2022-10-25T16:52:27.389Z,72.56
2022-10-25T16:54:55.665Z,72.41
2022-10-25T16:57:23.887Z,72.58
2022-10-25T16:59:52.145Z,72.85
2022-10-25T17:02:22.610Z,73.12
2022-10-25T17:04:51.038Z,73.17
2022-10-25T17:07:19.582Z,73.50
2022-10-25T17:09:49.306Z,73.49
2022-10-25T17:12:17.585Z,73.47
2022-10-25T17:14:45.953Z,70.53
2022-10-25T17:17:15.324Z,72.16
2022-10-25T17:19:43.593Z,72.76
2022-10-25T17:22:11.836Z,72.90
2022-10-25T17:24:41.052Z,72.93
2022-10-25T17:27:10.704Z,73.29
2022-10-25T17:29:39.000Z,73.55
2022-10-25T17:32:07.577Z,73.77
2022-10-25T17:34:36.768Z,73.94
2022-10-25T17:37:05.519Z,73.91
2022-10-25T17:39:33.782Z,74.21
2022-10-25T17:42:02.811Z,74.24
2022-10-25T17:44:32.771Z,74.34
2022-10-25T17:47:03.099Z,74.25
2022-10-25T17:49:32.626Z,74.38
2022-10-25T17:52:00.871Z,74.25
2022-10-25T17:54:29.153Z,74.31
2022-10-25T17:57:01.041Z,74.46
2022-10-25T17:59:30.381Z,74.42
2022-10-25T18:02:00.760Z,74.93
2022-10-25T18:04:36.533Z,74.98
2022-10-25T18:07:16.006Z,75.43
2022-10-25T18:09:44.227Z,75.32
2022-10-25T18:12:12.509Z,75.33
2022-10-25T18:14:40.784Z,75.43
2022-10-25T18:17:10.494Z,75.65
2022-10-25T18:19:38.735Z,75.68
2022-10-25T18:22:06.995Z,75.59
2022-10-25T18:24:35.714Z,75.61
2022-10-25T18:27:04.466Z,75.73
2022-10-25T18:29:34.462Z,75.68
2022-10-25T18:32:02.925Z,75.79
2022-10-25T18:34:33.173Z,75.81
2022-10-25T18:37:01.479Z,75.94
2022-10-25T18:39:29.718Z,75.93
2022-10-25T18:41:58.792Z,75.73
2022-10-25T18:44:27.165Z,75.99
2022-10-25T18:46:56.415Z,76.22
2022-10-25T18:49:24.697Z,76.46
2022-10-25T18:51:54.339Z,76.84
2022-10-25T18:54:22.607Z,77.05
2022-10-25T18:56:50.812Z,77.16
2022-10-25T18:59:19.121Z,77.13
2022-10-25T19:01:47.511Z,77.20
2022-10-25T19:04:15.962Z,77.28
2022-10-25T19:06:44.469Z,77.37
2022-10-25T19:09:14.934Z,77.41
2022-10-25T19:11:43.195Z,77.44
2022-10-25T19:14:11.412Z,77.19
2022-10-25T19:16:41.354Z,77.41
2022-10-25T19:19:12.075Z,77.62
2022-10-25T19:21:40.490Z,77.90
2022-10-25T19:24:11.949Z,77.99
2022-10-25T19:26:41.983Z,78.15
2022-10-25T19:29:10.784Z,78.19
2022-10-25T19:31:39.151Z,78.19
2022-10-25T19:34:07.357Z,78.19
2022-10-25T19:36:35.649Z,78.17
2022-10-25T19:39:04.733Z,78.48
2022-10-25T19:41:33.034Z,78.51
2022-10-25T19:44:02.715Z,78.96
2022-10-25T19:46:30.974Z,79.06
2022-10-25T19:49:00.373Z,79.12
2022-10-25T19:51:28.987Z,79.38
2022-10-25T19:53:57.596Z,79.42
2022-10-25T19:56:25.876Z,79.49
2022-10-25T19:58:54.071Z,79.36
2022-10-25T20:01:25.293Z,79.42
2022-10-25T20:03:55.796Z,79.53
2022-10-25T20:06:25.936Z,79.38
2022-10-25T20:08:55.154Z,79.41
2022-10-25T20:11:24.635Z,79.31
2022-10-25T20:13:55.015Z,79.22
2022-10-25T20:16:25.333Z,79.49
2022-10-25T20:18:53.896Z,79.57
2022-10-25T20:21:24.206Z,79.74
2022-10-25T20:23:56.467Z,80.04
2022-10-25T20:26:26.585Z,80.18
2022-10-25T20:28:55.836Z,79.84
2022-10-25T20:31:26.656Z,80.08
2022-10-25T20:33:56.863Z,80.36
2022-10-25T20:36:25.600Z,80.12
2022-10-25T20:38:54.224Z,80.34
2022-10-25T20:41:25.449Z,80.28
2022-10-25T20:43:55.910Z,80.24
2022-10-25T20:46:27.084Z,80.44
2022-10-25T20:48:56.025Z,80.43
2022-10-25T20:51:24.545Z,80.50
2022-10-25T20:53:52.974Z,77.81
2022-10-25T20:56:22.854Z,79.00
2022-10-25T20:58:51.442Z,79.50
2022-10-25T21:01:20.856Z,79.79
2022-10-25T21:03:50.732Z,79.70
2022-10-25T21:06:18.951Z,79.98
2022-10-25T21:08:47.234Z,80.20
2022-10-25T21:11:15.467Z,80.07
2022-10-25T21:13:43.803Z,80.32
2022-10-25T21:16:13.931Z,80.40
2022-10-25T21:18:42.864Z,80.49
2022-10-25T21:21:18.550Z,80.34
2022-10-25T21:23:47.373Z,80.63
2022-10-25T21:26:15.853Z,80.92
2022-10-25T21:28:44.186Z,81.33
2022-10-25T21:31:13.753Z,81.70
2022-10-25T21:33:49.869Z,81.59
2022-10-25T21:36:22.137Z,82.09
2022-10-25T21:38:50.716Z,82.66
2022-10-25T21:41:20.987Z,82.68
2022-10-25T21:43:51.138Z,82.99
2022-10-25T21:46:21.824Z,83.15
2022-10-25T21:48:51.162Z,83.61
2022-10-25T21:51:21.822Z,83.65
2022-10-25T21:53:50.078Z,83.67
2022-10-25T21:56:20.198Z,83.66
2022-10-25T21:58:50.958Z,84.01
2022-10-25T22:01:25.749Z,84.08
2022-10-25T22:03:59.333Z,84.51
2022-10-25T22:06:29.470Z,84.58
2022-10-25T22:08:58.327Z,84.37
2022-10-25T22:11:28.300Z,84.53
2022-10-25T22:13:58.133Z,84.69
2022-10-25T22:16:27.173Z,84.98
2022-10-25T22:18:58.950Z,85.01
2022-10-25T22:21:30.596Z,85.13
2022-10-25T22:23:59.501Z,85.32
2022-10-25T22:26:28.536Z,85.38
2022-10-25T22:28:58.797Z,85.39
2022-10-25T22:31:28.678Z,85.42
2022-10-25T22:33:58.691Z,85.28
2022-10-25T22:36:30.049Z,85.45
2022-10-25T22:38:58.858Z,85.45
2022-10-25T22:41:28.903Z,85.46
2022-10-25T22:43:57.470Z,85.46
2022-10-25T22:46:27.373Z,85.60
2022-10-25T22:48:57.210Z,85.46
2022-10-25T22:51:27.174Z,85.58
2022-10-25T22:53:56.902Z,85.64
2022-10-25T22:56:26.580Z,85.56
2022-10-25T22:58:56.847Z,85.62
2022-10-25T23:01:27.393Z,85.93
2022-10-25T23:03:57.377Z,85.89
2022-10-25T23:06:27.624Z,85.82
2022-10-25T23:08:58.574Z,85.67
2022-10-25T23:11:28.619Z,85.56
2022-10-25T23:13:58.338Z,85.27
2022-10-25T23:16:26.860Z,85.17
2022-10-25T23:18:56.627Z,85.25
2022-10-25T23:21:26.818Z,85.41
2022-10-25T23:23:56.128Z,85.24
2022-10-25T23:26:27.634Z,85.42
2022-10-25T23:28:56.818Z,85.73
2022-10-25T23:31:26.066Z,86.06
2022-10-25T23:33:55.836Z,86.31
2022-10-25T23:36:26.486Z,86.71
2022-10-25T23:38:55.604Z,86.68
2022-10-25T23:41:25.502Z,86.79
2022-10-25T23:43:53.769Z,87.11
2022-10-25T23:46:22.073Z,87.05
2022-10-25T23:48:50.352Z,87.24
2022-10-25T23:51:20.227Z,86.97
2022-10-25T23:53:48.884Z,87.31
2022-10-25T23:56:17.133Z,87.39
2022-10-25T23:58:50.498Z,87.40
